<?xml version="1.0" encoding="UTF-8" standalone="no" ?>
<gpx xmlns="http://www.topografix.com/GPX/1/1" xmlns:xsi="http://www.w3.org/2001/XMLSchema-instance" xsi:schemaLocation="http://www.topografix.com/GPX/1/1 http://www.topografix.com/GPX/1/1/gpx.xsd" version="1.1" creator="VisuGPX - https://www.visugpx.com">
  <metadata>
    <name>2 févr. 2020 à 10:33:35</name>
    <desc><![CDATA[Attention, début de trace et altitude incorrecte
]]></desc>
  </metadata>
  <trk>
    <name><![CDATA[2 févr. 2020 à 10:33:35]]></name>
    <trkseg>
      <trkpt lat="45.34518" lon="6.70558">
        <ele>1893.6</ele>
        <time>2020-02-02T09:34:00Z</time>
      </trkpt>
      <trkpt lat="45.34571" lon="6.70521">
        <ele>1865.4</ele>
        <time>2020-02-02T09:34:12Z</time>
      </trkpt>
      <trkpt lat="45.34442" lon="6.70588">
        <ele>1927.4</ele>
        <time>2020-02-02T09:35:15Z</time>
      </trkpt>
      <trkpt lat="45.34428" lon="6.70586">
        <ele>1931.2</ele>
        <time>2020-02-02T09:35:24Z</time>
      </trkpt>
      <trkpt lat="45.34427" lon="6.70635">
        <ele>1945</ele>
        <time>2020-02-02T09:35:35Z</time>
      </trkpt>
      <trkpt lat="45.34452" lon="6.70752">
        <ele>1960.9</ele>
        <time>2020-02-02T09:36:24Z</time>
      </trkpt>
      <trkpt lat="45.34417" lon="6.70952">
        <ele>2021.7</ele>
        <time>2020-02-02T09:36:45Z</time>
      </trkpt>
      <trkpt lat="45.34426" lon="6.70986">
        <ele>2025.2</ele>
        <time>2020-02-02T09:37:04Z</time>
      </trkpt>
      <trkpt lat="45.34417" lon="6.71021">
        <ele>2040</ele>
        <time>2020-02-02T09:37:24Z</time>
      </trkpt>
      <trkpt lat="45.34423" lon="6.71054">
        <ele>2052.7</ele>
        <time>2020-02-02T09:40:04Z</time>
      </trkpt>
      <trkpt lat="45.34374" lon="6.71036">
        <ele>2059.2</ele>
        <time>2020-02-02T09:48:13Z</time>
      </trkpt>
      <trkpt lat="45.34384" lon="6.71088">
        <ele>2074.6</ele>
        <time>2020-02-02T09:51:50Z</time>
      </trkpt>
      <trkpt lat="45.34392" lon="6.71149">
        <ele>2101.1</ele>
        <time>2020-02-02T09:53:48Z</time>
      </trkpt>
      <trkpt lat="45.34414" lon="6.71202">
        <ele>2120.9</ele>
        <time>2020-02-02T09:54:26Z</time>
      </trkpt>
      <trkpt lat="45.34419" lon="6.71236">
        <ele>2132.3</ele>
        <time>2020-02-02T09:55:54Z</time>
      </trkpt>
      <trkpt lat="45.34446" lon="6.71246">
        <ele>2127.9</ele>
        <time>2020-02-02T09:58:25Z</time>
      </trkpt>
      <trkpt lat="45.34426" lon="6.71261">
        <ele>2136.1</ele>
        <time>2020-02-02T10:00:26Z</time>
      </trkpt>
      <trkpt lat="45.34387" lon="6.71265">
        <ele>2144.8</ele>
        <time>2020-02-02T10:01:08Z</time>
      </trkpt>
      <trkpt lat="45.34361" lon="6.71281">
        <ele>2153.7</ele>
        <time>2020-02-02T10:01:42Z</time>
      </trkpt>
      <trkpt lat="45.3433" lon="6.71294">
        <ele>2166</ele>
        <time>2020-02-02T10:02:11Z</time>
      </trkpt>
      <trkpt lat="45.34273" lon="6.71294">
        <ele>2194.4</ele>
        <time>2020-02-02T10:02:52Z</time>
      </trkpt>
      <trkpt lat="45.33557" lon="6.71373">
        <ele>2448.8</ele>
        <time>2020-02-02T10:03:06Z</time>
      </trkpt>
      <trkpt lat="45.33549" lon="6.71378">
        <ele>2452.1</ele>
        <time>2020-02-02T10:05:19Z</time>
      </trkpt>
      <trkpt lat="45.33543" lon="6.71377">
        <ele>2453.5</ele>
        <time>2020-02-02T10:07:29Z</time>
      </trkpt>
      <trkpt lat="45.33539" lon="6.71377">
        <ele>2454.6</ele>
        <time>2020-02-02T10:14:46Z</time>
      </trkpt>
      <trkpt lat="45.33541" lon="6.71373">
        <ele>2453.3</ele>
        <time>2020-02-02T10:18:46Z</time>
      </trkpt>
      <trkpt lat="45.33542" lon="6.7137">
        <ele>2452.4</ele>
        <time>2020-02-02T10:21:15Z</time>
      </trkpt>
      <trkpt lat="45.3355" lon="6.71369">
        <ele>2449.9</ele>
        <time>2020-02-02T10:21:19Z</time>
      </trkpt>
      <trkpt lat="45.33559" lon="6.71369">
        <ele>2447.4</ele>
        <time>2020-02-02T10:21:23Z</time>
      </trkpt>
      <trkpt lat="45.33559" lon="6.7136">
        <ele>2445.4</ele>
        <time>2020-02-02T10:21:27Z</time>
      </trkpt>
      <trkpt lat="45.33565" lon="6.71356">
        <ele>2442.8</ele>
        <time>2020-02-02T10:21:30Z</time>
      </trkpt>
      <trkpt lat="45.33578" lon="6.71352">
        <ele>2438.1</ele>
        <time>2020-02-02T10:21:51Z</time>
      </trkpt>
      <trkpt lat="45.3358" lon="6.7134">
        <ele>2434.6</ele>
        <time>2020-02-02T10:21:55Z</time>
      </trkpt>
      <trkpt lat="45.33589" lon="6.71337">
        <ele>2431.8</ele>
        <time>2020-02-02T10:21:57Z</time>
      </trkpt>
      <trkpt lat="45.33597" lon="6.71328">
        <ele>2427.9</ele>
        <time>2020-02-02T10:22:01Z</time>
      </trkpt>
      <trkpt lat="45.336" lon="6.71316">
        <ele>2424.2</ele>
        <time>2020-02-02T10:22:05Z</time>
      </trkpt>
      <trkpt lat="45.33607" lon="6.71316">
        <ele>2422.6</ele>
        <time>2020-02-02T10:22:08Z</time>
      </trkpt>
      <trkpt lat="45.33609" lon="6.71317">
        <ele>2422.4</ele>
        <time>2020-02-02T10:24:15Z</time>
      </trkpt>
      <trkpt lat="45.33614" lon="6.71308">
        <ele>2418.7</ele>
        <time>2020-02-02T10:24:29Z</time>
      </trkpt>
      <trkpt lat="45.33613" lon="6.713">
        <ele>2416.8</ele>
        <time>2020-02-02T10:24:31Z</time>
      </trkpt>
      <trkpt lat="45.3362" lon="6.71293">
        <ele>2413</ele>
        <time>2020-02-02T10:24:33Z</time>
      </trkpt>
      <trkpt lat="45.33627" lon="6.71294">
        <ele>2411.4</ele>
        <time>2020-02-02T10:24:35Z</time>
      </trkpt>
      <trkpt lat="45.33627" lon="6.71281">
        <ele>2407.5</ele>
        <time>2020-02-02T10:24:39Z</time>
      </trkpt>
      <trkpt lat="45.33624" lon="6.71276">
        <ele>2406.9</ele>
        <time>2020-02-02T10:24:40Z</time>
      </trkpt>
      <trkpt lat="45.33619" lon="6.71268">
        <ele>2406.1</ele>
        <time>2020-02-02T10:24:42Z</time>
      </trkpt>
      <trkpt lat="45.33632" lon="6.71262">
        <ele>2400.3</ele>
        <time>2020-02-02T10:24:47Z</time>
      </trkpt>
      <trkpt lat="45.3364" lon="6.71256">
        <ele>2395.9</ele>
        <time>2020-02-02T10:24:50Z</time>
      </trkpt>
      <trkpt lat="45.33636" lon="6.71245">
        <ele>2393.7</ele>
        <time>2020-02-02T10:24:53Z</time>
      </trkpt>
      <trkpt lat="45.33643" lon="6.71237">
        <ele>2388.7</ele>
        <time>2020-02-02T10:25:36Z</time>
      </trkpt>
      <trkpt lat="45.33646" lon="6.71238">
        <ele>2388</ele>
        <time>2020-02-02T10:28:01Z</time>
      </trkpt>
      <trkpt lat="45.33652" lon="6.71239">
        <ele>2386.3</ele>
        <time>2020-02-02T10:28:03Z</time>
      </trkpt>
      <trkpt lat="45.3366" lon="6.71237">
        <ele>2383</ele>
        <time>2020-02-02T10:28:06Z</time>
      </trkpt>
      <trkpt lat="45.3366" lon="6.71227">
        <ele>2379.8</ele>
        <time>2020-02-02T10:28:08Z</time>
      </trkpt>
      <trkpt lat="45.33655" lon="6.71217">
        <ele>2378.2</ele>
        <time>2020-02-02T10:28:11Z</time>
      </trkpt>
      <trkpt lat="45.33651" lon="6.71209">
        <ele>2376.9</ele>
        <time>2020-02-02T10:28:13Z</time>
      </trkpt>
      <trkpt lat="45.33659" lon="6.71208">
        <ele>2373.9</ele>
        <time>2020-02-02T10:28:16Z</time>
      </trkpt>
      <trkpt lat="45.33665" lon="6.71208">
        <ele>2371.9</ele>
        <time>2020-02-02T10:28:18Z</time>
      </trkpt>
      <trkpt lat="45.33669" lon="6.712">
        <ele>2368.6</ele>
        <time>2020-02-02T10:28:20Z</time>
      </trkpt>
      <trkpt lat="45.33665" lon="6.71194">
        <ele>2367.4</ele>
        <time>2020-02-02T10:28:22Z</time>
      </trkpt>
      <trkpt lat="45.33659" lon="6.71184">
        <ele>2366.1</ele>
        <time>2020-02-02T10:28:25Z</time>
      </trkpt>
      <trkpt lat="45.33677" lon="6.71182">
        <ele>2361.8</ele>
        <time>2020-02-02T10:28:37Z</time>
      </trkpt>
      <trkpt lat="45.33683" lon="6.71182">
        <ele>2361.2</ele>
        <time>2020-02-02T10:28:44Z</time>
      </trkpt>
      <trkpt lat="45.33685" lon="6.7117">
        <ele>2356.9</ele>
        <time>2020-02-02T10:28:50Z</time>
      </trkpt>
      <trkpt lat="45.3368" lon="6.71161">
        <ele>2354.6</ele>
        <time>2020-02-02T10:28:52Z</time>
      </trkpt>
      <trkpt lat="45.33675" lon="6.71153">
        <ele>2352.9</ele>
        <time>2020-02-02T10:28:54Z</time>
      </trkpt>
      <trkpt lat="45.33669" lon="6.71143">
        <ele>2350.8</ele>
        <time>2020-02-02T10:28:57Z</time>
      </trkpt>
      <trkpt lat="45.33683" lon="6.71148">
        <ele>2350.1</ele>
        <time>2020-02-02T10:29:12Z</time>
      </trkpt>
      <trkpt lat="45.3369" lon="6.71144">
        <ele>2347.8</ele>
        <time>2020-02-02T10:29:14Z</time>
      </trkpt>
      <trkpt lat="45.33691" lon="6.71132">
        <ele>2343.6</ele>
        <time>2020-02-02T10:29:17Z</time>
      </trkpt>
      <trkpt lat="45.33687" lon="6.71123">
        <ele>2341.4</ele>
        <time>2020-02-02T10:29:19Z</time>
      </trkpt>
      <trkpt lat="45.33683" lon="6.7111">
        <ele>2338.1</ele>
        <time>2020-02-02T10:29:22Z</time>
      </trkpt>
      <trkpt lat="45.33699" lon="6.71114">
        <ele>2336</ele>
        <time>2020-02-02T10:29:28Z</time>
      </trkpt>
      <trkpt lat="45.33709" lon="6.71114">
        <ele>2333.9</ele>
        <time>2020-02-02T10:29:31Z</time>
      </trkpt>
      <trkpt lat="45.33712" lon="6.71101">
        <ele>2328.5</ele>
        <time>2020-02-02T10:29:33Z</time>
      </trkpt>
      <trkpt lat="45.33706" lon="6.71093">
        <ele>2327.1</ele>
        <time>2020-02-02T10:29:35Z</time>
      </trkpt>
      <trkpt lat="45.33699" lon="6.71088">
        <ele>2327.1</ele>
        <time>2020-02-02T10:29:38Z</time>
      </trkpt>
      <trkpt lat="45.33706" lon="6.7107">
        <ele>2319.3</ele>
        <time>2020-02-02T10:29:47Z</time>
      </trkpt>
      <trkpt lat="45.33709" lon="6.7106">
        <ele>2315.3</ele>
        <time>2020-02-02T10:29:49Z</time>
      </trkpt>
      <trkpt lat="45.33717" lon="6.71055">
        <ele>2311.3</ele>
        <time>2020-02-02T10:29:52Z</time>
      </trkpt>
      <trkpt lat="45.33716" lon="6.71044">
        <ele>2308</ele>
        <time>2020-02-02T10:29:56Z</time>
      </trkpt>
      <trkpt lat="45.33711" lon="6.71036">
        <ele>2306.9</ele>
        <time>2020-02-02T10:29:58Z</time>
      </trkpt>
      <trkpt lat="45.33705" lon="6.71029">
        <ele>2306.4</ele>
        <time>2020-02-02T10:30:00Z</time>
      </trkpt>
      <trkpt lat="45.337" lon="6.71019">
        <ele>2304.8</ele>
        <time>2020-02-02T10:30:03Z</time>
      </trkpt>
      <trkpt lat="45.33696" lon="6.71009">
        <ele>2303</ele>
        <time>2020-02-02T10:30:05Z</time>
      </trkpt>
      <trkpt lat="45.33707" lon="6.71013">
        <ele>2300.6</ele>
        <time>2020-02-02T10:30:11Z</time>
      </trkpt>
      <trkpt lat="45.33715" lon="6.70993">
        <ele>2291.4</ele>
        <time>2020-02-02T10:32:07Z</time>
      </trkpt>
      <trkpt lat="45.33708" lon="6.70973">
        <ele>2286.9</ele>
        <time>2020-02-02T10:32:13Z</time>
      </trkpt>
      <trkpt lat="45.33713" lon="6.70958">
        <ele>2280</ele>
        <time>2020-02-02T10:34:04Z</time>
      </trkpt>
      <trkpt lat="45.3372" lon="6.70959">
        <ele>2278</ele>
        <time>2020-02-02T10:35:05Z</time>
      </trkpt>
      <trkpt lat="45.33729" lon="6.7096">
        <ele>2275.3</ele>
        <time>2020-02-02T10:35:07Z</time>
      </trkpt>
      <trkpt lat="45.33737" lon="6.70961">
        <ele>2272.9</ele>
        <time>2020-02-02T10:35:09Z</time>
      </trkpt>
      <trkpt lat="45.3377" lon="6.70974">
        <ele>2267.9</ele>
        <time>2020-02-02T10:35:25Z</time>
      </trkpt>
      <trkpt lat="45.33776" lon="6.70971">
        <ele>2265.4</ele>
        <time>2020-02-02T10:35:32Z</time>
      </trkpt>
      <trkpt lat="45.33782" lon="6.70965">
        <ele>2261.8</ele>
        <time>2020-02-02T10:35:34Z</time>
      </trkpt>
      <trkpt lat="45.33791" lon="6.70961">
        <ele>2258.1</ele>
        <time>2020-02-02T10:35:36Z</time>
      </trkpt>
      <trkpt lat="45.33799" lon="6.70959">
        <ele>2255.4</ele>
        <time>2020-02-02T10:35:40Z</time>
      </trkpt>
      <trkpt lat="45.33814" lon="6.70963">
        <ele>2253</ele>
        <time>2020-02-02T10:35:47Z</time>
      </trkpt>
      <trkpt lat="45.33819" lon="6.70963">
        <ele>2251.7</ele>
        <time>2020-02-02T10:35:53Z</time>
      </trkpt>
      <trkpt lat="45.33825" lon="6.70957">
        <ele>2248.1</ele>
        <time>2020-02-02T10:36:16Z</time>
      </trkpt>
      <trkpt lat="45.33834" lon="6.70962">
        <ele>2247.6</ele>
        <time>2020-02-02T10:36:18Z</time>
      </trkpt>
      <trkpt lat="45.3384" lon="6.70964">
        <ele>2247</ele>
        <time>2020-02-02T10:36:20Z</time>
      </trkpt>
      <trkpt lat="45.33846" lon="6.70962">
        <ele>2244.9</ele>
        <time>2020-02-02T10:36:22Z</time>
      </trkpt>
      <trkpt lat="45.33857" lon="6.70962">
        <ele>2242.5</ele>
        <time>2020-02-02T10:36:24Z</time>
      </trkpt>
      <trkpt lat="45.33865" lon="6.70963">
        <ele>2241</ele>
        <time>2020-02-02T10:36:26Z</time>
      </trkpt>
      <trkpt lat="45.33886" lon="6.70964">
        <ele>2236.6</ele>
        <time>2020-02-02T10:36:34Z</time>
      </trkpt>
      <trkpt lat="45.33895" lon="6.70966">
        <ele>2235.1</ele>
        <time>2020-02-02T10:36:36Z</time>
      </trkpt>
      <trkpt lat="45.33904" lon="6.70969">
        <ele>2234</ele>
        <time>2020-02-02T10:36:39Z</time>
      </trkpt>
      <trkpt lat="45.33921" lon="6.70975">
        <ele>2231.3</ele>
        <time>2020-02-02T10:36:44Z</time>
      </trkpt>
      <trkpt lat="45.33936" lon="6.70981">
        <ele>2227.8</ele>
        <time>2020-02-02T10:36:50Z</time>
      </trkpt>
      <trkpt lat="45.33944" lon="6.70984">
        <ele>2225.9</ele>
        <time>2020-02-02T10:36:53Z</time>
      </trkpt>
      <trkpt lat="45.33952" lon="6.70988">
        <ele>2224.1</ele>
        <time>2020-02-02T10:36:57Z</time>
      </trkpt>
      <trkpt lat="45.33959" lon="6.70997">
        <ele>2224</ele>
        <time>2020-02-02T10:37:35Z</time>
      </trkpt>
      <trkpt lat="45.33964" lon="6.71003">
        <ele>2223.9</ele>
        <time>2020-02-02T10:37:37Z</time>
      </trkpt>
      <trkpt lat="45.33966" lon="6.71011">
        <ele>2225.6</ele>
        <time>2020-02-02T10:37:39Z</time>
      </trkpt>
      <trkpt lat="45.33971" lon="6.7102">
        <ele>2226.5</ele>
        <time>2020-02-02T10:37:41Z</time>
      </trkpt>
      <trkpt lat="45.33975" lon="6.71025">
        <ele>2226.6</ele>
        <time>2020-02-02T10:37:42Z</time>
      </trkpt>
      <trkpt lat="45.3398" lon="6.71032">
        <ele>2226.8</ele>
        <time>2020-02-02T10:37:43Z</time>
      </trkpt>
      <trkpt lat="45.34009" lon="6.71058">
        <ele>2222.5</ele>
        <time>2020-02-02T10:37:53Z</time>
      </trkpt>
      <trkpt lat="45.34017" lon="6.71059">
        <ele>2219</ele>
        <time>2020-02-02T10:37:56Z</time>
      </trkpt>
      <trkpt lat="45.34017" lon="6.7104">
        <ele>2213.7</ele>
        <time>2020-02-02T10:38:06Z</time>
      </trkpt>
      <trkpt lat="45.34014" lon="6.71017">
        <ele>2208.6</ele>
        <time>2020-02-02T10:38:16Z</time>
      </trkpt>
      <trkpt lat="45.34025" lon="6.71019">
        <ele>2204.2</ele>
        <time>2020-02-02T10:38:20Z</time>
      </trkpt>
      <trkpt lat="45.34038" lon="6.71036">
        <ele>2202.9</ele>
        <time>2020-02-02T10:38:24Z</time>
      </trkpt>
      <trkpt lat="45.34049" lon="6.71037">
        <ele>2198.1</ele>
        <time>2020-02-02T10:38:32Z</time>
      </trkpt>
      <trkpt lat="45.34057" lon="6.71044">
        <ele>2196.3</ele>
        <time>2020-02-02T10:38:39Z</time>
      </trkpt>
      <trkpt lat="45.34059" lon="6.71035">
        <ele>2193</ele>
        <time>2020-02-02T10:38:46Z</time>
      </trkpt>
      <trkpt lat="45.34066" lon="6.7104">
        <ele>2191.1</ele>
        <time>2020-02-02T10:38:49Z</time>
      </trkpt>
      <trkpt lat="45.34069" lon="6.71048">
        <ele>2191.8</ele>
        <time>2020-02-02T10:38:52Z</time>
      </trkpt>
      <trkpt lat="45.34078" lon="6.71045">
        <ele>2186.8</ele>
        <time>2020-02-02T10:38:55Z</time>
      </trkpt>
      <trkpt lat="45.34076" lon="6.7104">
        <ele>2186.5</ele>
        <time>2020-02-02T10:40:25Z</time>
      </trkpt>
      <trkpt lat="45.34081" lon="6.7104">
        <ele>2184.2</ele>
        <time>2020-02-02T10:41:20Z</time>
      </trkpt>
      <trkpt lat="45.34085" lon="6.71047">
        <ele>2184</ele>
        <time>2020-02-02T10:41:32Z</time>
      </trkpt>
      <trkpt lat="45.34089" lon="6.71053">
        <ele>2183.3</ele>
        <time>2020-02-02T10:41:34Z</time>
      </trkpt>
      <trkpt lat="45.34094" lon="6.71046">
        <ele>2179</ele>
        <time>2020-02-02T10:41:36Z</time>
      </trkpt>
      <trkpt lat="45.34092" lon="6.71035">
        <ele>2177.4</ele>
        <time>2020-02-02T10:41:38Z</time>
      </trkpt>
      <trkpt lat="45.34099" lon="6.71035">
        <ele>2173.7</ele>
        <time>2020-02-02T10:41:57Z</time>
      </trkpt>
      <trkpt lat="45.34104" lon="6.71042">
        <ele>2172.8</ele>
        <time>2020-02-02T10:41:59Z</time>
      </trkpt>
      <trkpt lat="45.34103" lon="6.71027">
        <ele>2169.8</ele>
        <time>2020-02-02T10:42:19Z</time>
      </trkpt>
      <trkpt lat="45.34103" lon="6.71018">
        <ele>2167.7</ele>
        <time>2020-02-02T10:42:22Z</time>
      </trkpt>
      <trkpt lat="45.34103" lon="6.7101">
        <ele>2165.9</ele>
        <time>2020-02-02T10:42:25Z</time>
      </trkpt>
      <trkpt lat="45.34113" lon="6.71014">
        <ele>2161.9</ele>
        <time>2020-02-02T10:42:28Z</time>
      </trkpt>
      <trkpt lat="45.34119" lon="6.71018">
        <ele>2159.8</ele>
        <time>2020-02-02T10:42:29Z</time>
      </trkpt>
      <trkpt lat="45.34126" lon="6.71034">
        <ele>2159.6</ele>
        <time>2020-02-02T10:42:34Z</time>
      </trkpt>
      <trkpt lat="45.34132" lon="6.71027">
        <ele>2155.1</ele>
        <time>2020-02-02T10:42:37Z</time>
      </trkpt>
      <trkpt lat="45.34132" lon="6.71019">
        <ele>2153.5</ele>
        <time>2020-02-02T10:42:40Z</time>
      </trkpt>
      <trkpt lat="45.34134" lon="6.71009">
        <ele>2150.5</ele>
        <time>2020-02-02T10:42:55Z</time>
      </trkpt>
      <trkpt lat="45.34144" lon="6.71003">
        <ele>2144.5</ele>
        <time>2020-02-02T10:43:52Z</time>
      </trkpt>
      <trkpt lat="45.34149" lon="6.7101">
        <ele>2143.3</ele>
        <time>2020-02-02T10:43:54Z</time>
      </trkpt>
      <trkpt lat="45.34151" lon="6.70999">
        <ele>2140.5</ele>
        <time>2020-02-02T10:44:00Z</time>
      </trkpt>
      <trkpt lat="45.3415" lon="6.70986">
        <ele>2140.3</ele>
        <time>2020-02-02T10:44:02Z</time>
      </trkpt>
      <trkpt lat="45.3415" lon="6.70975">
        <ele>2139.7</ele>
        <time>2020-02-02T10:44:04Z</time>
      </trkpt>
      <trkpt lat="45.34158" lon="6.70976">
        <ele>2135.8</ele>
        <time>2020-02-02T10:44:06Z</time>
      </trkpt>
      <trkpt lat="45.34162" lon="6.70981">
        <ele>2134.1</ele>
        <time>2020-02-02T10:44:07Z</time>
      </trkpt>
      <trkpt lat="45.34167" lon="6.70992">
        <ele>2132.4</ele>
        <time>2020-02-02T10:44:09Z</time>
      </trkpt>
      <trkpt lat="45.34173" lon="6.70999">
        <ele>2129.8</ele>
        <time>2020-02-02T10:44:11Z</time>
      </trkpt>
      <trkpt lat="45.3418" lon="6.71004">
        <ele>2127.1</ele>
        <time>2020-02-02T10:44:14Z</time>
      </trkpt>
      <trkpt lat="45.34188" lon="6.70988">
        <ele>2121.5</ele>
        <time>2020-02-02T10:44:18Z</time>
      </trkpt>
      <trkpt lat="45.34191" lon="6.70978">
        <ele>2119.2</ele>
        <time>2020-02-02T10:44:21Z</time>
      </trkpt>
      <trkpt lat="45.342" lon="6.70991">
        <ele>2115.8</ele>
        <time>2020-02-02T10:44:26Z</time>
      </trkpt>
      <trkpt lat="45.34208" lon="6.70988">
        <ele>2111.4</ele>
        <time>2020-02-02T10:45:23Z</time>
      </trkpt>
      <trkpt lat="45.3421" lon="6.70981">
        <ele>2109.7</ele>
        <time>2020-02-02T10:45:24Z</time>
      </trkpt>
      <trkpt lat="45.34209" lon="6.70969">
        <ele>2109</ele>
        <time>2020-02-02T10:45:31Z</time>
      </trkpt>
      <trkpt lat="45.34226" lon="6.70961">
        <ele>2099.1</ele>
        <time>2020-02-02T10:46:19Z</time>
      </trkpt>
      <trkpt lat="45.34256" lon="6.70975">
        <ele>2086.4</ele>
        <time>2020-02-02T10:47:03Z</time>
      </trkpt>
      <trkpt lat="45.34272" lon="6.7098">
        <ele>2081.9</ele>
        <time>2020-02-02T10:47:24Z</time>
      </trkpt>
      <trkpt lat="45.34288" lon="6.71019">
        <ele>2083</ele>
        <time>2020-02-02T10:47:37Z</time>
      </trkpt>
      <trkpt lat="45.34293" lon="6.70995">
        <ele>2076.9</ele>
        <time>2020-02-02T10:47:49Z</time>
      </trkpt>
      <trkpt lat="45.34307" lon="6.71009">
        <ele>2074.6</ele>
        <time>2020-02-02T10:48:09Z</time>
      </trkpt>
      <trkpt lat="45.34325" lon="6.70993">
        <ele>2065.9</ele>
        <time>2020-02-02T10:49:04Z</time>
      </trkpt>
      <trkpt lat="45.34357" lon="6.71005">
        <ele>2056</ele>
        <time>2020-02-02T10:49:46Z</time>
      </trkpt>
      <trkpt lat="45.34363" lon="6.70977">
        <ele>2048.9</ele>
        <time>2020-02-02T10:49:56Z</time>
      </trkpt>
      <trkpt lat="45.34374" lon="6.70967">
        <ele>2042.8</ele>
        <time>2020-02-02T10:51:07Z</time>
      </trkpt>
      <trkpt lat="45.34393" lon="6.70959">
        <ele>2033.3</ele>
        <time>2020-02-02T10:52:04Z</time>
      </trkpt>
      <trkpt lat="45.34388" lon="6.70941">
        <ele>2032.5</ele>
        <time>2020-02-02T10:54:33Z</time>
      </trkpt>
      <trkpt lat="45.34391" lon="6.70933">
        <ele>2029.8</ele>
        <time>2020-02-02T10:54:41Z</time>
      </trkpt>
      <trkpt lat="45.34398" lon="6.70936">
        <ele>2027.1</ele>
        <time>2020-02-02T10:54:43Z</time>
      </trkpt>
      <trkpt lat="45.344" lon="6.70929">
        <ele>2025</ele>
        <time>2020-02-02T10:54:54Z</time>
      </trkpt>
      <trkpt lat="45.34395" lon="6.70918">
        <ele>2025.4</ele>
        <time>2020-02-02T10:54:58Z</time>
      </trkpt>
      <trkpt lat="45.34404" lon="6.70919">
        <ele>2021.4</ele>
        <time>2020-02-02T10:55:21Z</time>
      </trkpt>
      <trkpt lat="45.34403" lon="6.70906">
        <ele>2019.1</ele>
        <time>2020-02-02T10:55:37Z</time>
      </trkpt>
      <trkpt lat="45.34399" lon="6.70893">
        <ele>2018</ele>
        <time>2020-02-02T10:55:39Z</time>
      </trkpt>
      <trkpt lat="45.34405" lon="6.70894">
        <ele>2015.5</ele>
        <time>2020-02-02T10:55:42Z</time>
      </trkpt>
      <trkpt lat="45.34407" lon="6.70902">
        <ele>2016.3</ele>
        <time>2020-02-02T10:55:47Z</time>
      </trkpt>
      <trkpt lat="45.34411" lon="6.70887">
        <ele>2011.2</ele>
        <time>2020-02-02T10:56:24Z</time>
      </trkpt>
      <trkpt lat="45.3442" lon="6.70888">
        <ele>2007.2</ele>
        <time>2020-02-02T10:56:45Z</time>
      </trkpt>
      <trkpt lat="45.34425" lon="6.70878">
        <ele>2002.6</ele>
        <time>2020-02-02T10:57:03Z</time>
      </trkpt>
      <trkpt lat="45.34423" lon="6.70868">
        <ele>2001.4</ele>
        <time>2020-02-02T10:57:06Z</time>
      </trkpt>
      <trkpt lat="45.34427" lon="6.70864">
        <ele>1998.5</ele>
        <time>2020-02-02T10:57:48Z</time>
      </trkpt>
      <trkpt lat="45.34431" lon="6.70871">
        <ele>1998.1</ele>
        <time>2020-02-02T10:57:51Z</time>
      </trkpt>
      <trkpt lat="45.34437" lon="6.70875">
        <ele>1996.1</ele>
        <time>2020-02-02T10:58:02Z</time>
      </trkpt>
      <trkpt lat="45.34434" lon="6.70861">
        <ele>1994.4</ele>
        <time>2020-02-02T10:58:09Z</time>
      </trkpt>
      <trkpt lat="45.34435" lon="6.7085">
        <ele>1991.4</ele>
        <time>2020-02-02T10:58:11Z</time>
      </trkpt>
      <trkpt lat="45.34443" lon="6.70831">
        <ele>1982.9</ele>
        <time>2020-02-02T10:58:15Z</time>
      </trkpt>
      <trkpt lat="45.34452" lon="6.70791">
        <ele>1969.5</ele>
        <time>2020-02-02T10:58:24Z</time>
      </trkpt>
      <trkpt lat="45.3445" lon="6.70769">
        <ele>1965.4</ele>
        <time>2020-02-02T10:58:34Z</time>
      </trkpt>
      <trkpt lat="45.34449" lon="6.70777">
        <ele>1967.7</ele>
        <time>2020-02-02T10:59:02Z</time>
      </trkpt>
      <trkpt lat="45.34453" lon="6.70784">
        <ele>1967.5</ele>
        <time>2020-02-02T10:59:36Z</time>
      </trkpt>
      <trkpt lat="45.34456" lon="6.70792">
        <ele>1967.9</ele>
        <time>2020-02-02T11:01:21Z</time>
      </trkpt>
      <trkpt lat="45.34457" lon="6.70788">
        <ele>1966.6</ele>
        <time>2020-02-02T11:02:20Z</time>
      </trkpt>
      <trkpt lat="45.34451" lon="6.70786">
        <ele>1968.8</ele>
        <time>2020-02-02T11:02:54Z</time>
      </trkpt>
      <trkpt lat="45.34453" lon="6.70778">
        <ele>1966.2</ele>
        <time>2020-02-02T11:04:44Z</time>
      </trkpt>
      <trkpt lat="45.34454" lon="6.70757">
        <ele>1961.2</ele>
        <time>2020-02-02T11:05:07Z</time>
      </trkpt>
      <trkpt lat="45.34454" lon="6.70746">
        <ele>1959</ele>
        <time>2020-02-02T11:05:10Z</time>
      </trkpt>
      <trkpt lat="45.34457" lon="6.70703">
        <ele>1950.6</ele>
        <time>2020-02-02T11:05:27Z</time>
      </trkpt>
      <trkpt lat="45.34462" lon="6.70694">
        <ele>1947.4</ele>
        <time>2020-02-02T11:05:30Z</time>
      </trkpt>
      <trkpt lat="45.34469" lon="6.70696">
        <ele>1945.3</ele>
        <time>2020-02-02T11:05:32Z</time>
      </trkpt>
      <trkpt lat="45.34479" lon="6.70707">
        <ele>1943.6</ele>
        <time>2020-02-02T11:05:40Z</time>
      </trkpt>
      <trkpt lat="45.34485" lon="6.70704">
        <ele>1941.1</ele>
        <time>2020-02-02T11:05:43Z</time>
      </trkpt>
      <trkpt lat="45.34489" lon="6.707">
        <ele>1939.1</ele>
        <time>2020-02-02T11:06:39Z</time>
      </trkpt>
      <trkpt lat="45.34493" lon="6.70705">
        <ele>1938.5</ele>
        <time>2020-02-02T11:06:42Z</time>
      </trkpt>
      <trkpt lat="45.34501" lon="6.70709">
        <ele>1936.3</ele>
        <time>2020-02-02T11:06:58Z</time>
      </trkpt>
      <trkpt lat="45.34508" lon="6.7071">
        <ele>1934.2</ele>
        <time>2020-02-02T11:07:09Z</time>
      </trkpt>
      <trkpt lat="45.34515" lon="6.70705">
        <ele>1931.4</ele>
        <time>2020-02-02T11:07:17Z</time>
      </trkpt>
      <trkpt lat="45.34513" lon="6.70696">
        <ele>1930.7</ele>
        <time>2020-02-02T11:07:19Z</time>
      </trkpt>
      <trkpt lat="45.34514" lon="6.70684">
        <ele>1928.7</ele>
        <time>2020-02-02T11:07:25Z</time>
      </trkpt>
      <trkpt lat="45.3451" lon="6.70679">
        <ele>1929.3</ele>
        <time>2020-02-02T11:07:28Z</time>
      </trkpt>
      <trkpt lat="45.34505" lon="6.70658">
        <ele>1926.9</ele>
        <time>2020-02-02T11:07:55Z</time>
      </trkpt>
      <trkpt lat="45.34502" lon="6.7065">
        <ele>1925.7</ele>
        <time>2020-02-02T11:07:59Z</time>
      </trkpt>
      <trkpt lat="45.34498" lon="6.70642">
        <ele>1924.8</ele>
        <time>2020-02-02T11:08:11Z</time>
      </trkpt>
      <trkpt lat="45.34497" lon="6.70633">
        <ele>1922.6</ele>
        <time>2020-02-02T11:08:22Z</time>
      </trkpt>
      <trkpt lat="45.34493" lon="6.70626">
        <ele>1922</ele>
        <time>2020-02-02T11:08:27Z</time>
      </trkpt>
      <trkpt lat="45.34492" lon="6.70615">
        <ele>1919.2</ele>
        <time>2020-02-02T11:08:33Z</time>
      </trkpt>
      <trkpt lat="45.34488" lon="6.70605">
        <ele>1917.7</ele>
        <time>2020-02-02T11:08:35Z</time>
      </trkpt>
      <trkpt lat="45.34485" lon="6.70594">
        <ele>1915.6</ele>
        <time>2020-02-02T11:08:37Z</time>
      </trkpt>
      <trkpt lat="45.34485" lon="6.70585">
        <ele>1913.1</ele>
        <time>2020-02-02T11:08:39Z</time>
      </trkpt>
      <trkpt lat="45.34483" lon="6.70556">
        <ele>1904.4</ele>
        <time>2020-02-02T11:08:51Z</time>
      </trkpt>
      <trkpt lat="45.34484" lon="6.70539">
        <ele>1898.6</ele>
        <time>2020-02-02T11:09:06Z</time>
      </trkpt>
      <trkpt lat="45.34485" lon="6.70549">
        <ele>1901.6</ele>
        <time>2020-02-02T11:09:39Z</time>
      </trkpt>
      <trkpt lat="45.34498" lon="6.70561">
        <ele>1901.4</ele>
        <time>2020-02-02T11:10:29Z</time>
      </trkpt>
      <trkpt lat="45.34502" lon="6.70539">
        <ele>1893</ele>
        <time>2020-02-02T11:11:18Z</time>
      </trkpt>
      <trkpt lat="45.34514" lon="6.70522">
        <ele>1883.7</ele>
        <time>2020-02-02T11:12:07Z</time>
      </trkpt>
      <trkpt lat="45.34516" lon="6.705">
        <ele>1876.2</ele>
        <time>2020-02-02T11:12:15Z</time>
      </trkpt>
      <trkpt lat="45.34511" lon="6.70492">
        <ele>1875.1</ele>
        <time>2020-02-02T11:12:39Z</time>
      </trkpt>
      <trkpt lat="45.3451" lon="6.70483">
        <ele>1872.4</ele>
        <time>2020-02-02T11:13:58Z</time>
      </trkpt>
      <trkpt lat="45.34515" lon="6.70472">
        <ele>1867.4</ele>
        <time>2020-02-02T11:14:31Z</time>
      </trkpt>
      <trkpt lat="45.3452" lon="6.70466">
        <ele>1864.1</ele>
        <time>2020-02-02T11:14:33Z</time>
      </trkpt>
      <trkpt lat="45.34534" lon="6.70471">
        <ele>1861.8</ele>
        <time>2020-02-02T11:14:39Z</time>
      </trkpt>
      <trkpt lat="45.34541" lon="6.70467">
        <ele>1858.6</ele>
        <time>2020-02-02T11:14:42Z</time>
      </trkpt>
      <trkpt lat="45.34542" lon="6.70453">
        <ele>1854</ele>
        <time>2020-02-02T11:14:44Z</time>
      </trkpt>
      <trkpt lat="45.34541" lon="6.70445">
        <ele>1851.8</ele>
        <time>2020-02-02T11:14:45Z</time>
      </trkpt>
      <trkpt lat="45.34536" lon="6.70435">
        <ele>1850</ele>
        <time>2020-02-02T11:14:47Z</time>
      </trkpt>
      <trkpt lat="45.34533" lon="6.70423">
        <ele>1847.1</ele>
        <time>2020-02-02T11:14:51Z</time>
      </trkpt>
      <trkpt lat="45.34542" lon="6.70416">
        <ele>1842.7</ele>
        <time>2020-02-02T11:14:53Z</time>
      </trkpt>
      <trkpt lat="45.34551" lon="6.70413">
        <ele>1839.7</ele>
        <time>2020-02-02T11:14:55Z</time>
      </trkpt>
      <trkpt lat="45.3457" lon="6.70407">
        <ele>1833.6</ele>
        <time>2020-02-02T11:18:15Z</time>
      </trkpt>
      <trkpt lat="45.34586" lon="6.70408">
        <ele>1830.2</ele>
        <time>2020-02-02T11:18:22Z</time>
      </trkpt>
      <trkpt lat="45.3458" lon="6.70388">
        <ele>1826.2</ele>
        <time>2020-02-02T11:18:30Z</time>
      </trkpt>
      <trkpt lat="45.3459" lon="6.70371">
        <ele>1819.7</ele>
        <time>2020-02-02T11:19:57Z</time>
      </trkpt>
      <trkpt lat="45.34588" lon="6.70348">
        <ele>1814</ele>
        <time>2020-02-02T11:20:11Z</time>
      </trkpt>
      <trkpt lat="45.34576" lon="6.70332">
        <ele>1811.9</ele>
        <time>2020-02-02T11:20:16Z</time>
      </trkpt>
      <trkpt lat="45.34572" lon="6.7031">
        <ele>1805.3</ele>
        <time>2020-02-02T11:21:03Z</time>
      </trkpt>
      <trkpt lat="45.3456" lon="6.70297">
        <ele>1803.2</ele>
        <time>2020-02-02T11:21:06Z</time>
      </trkpt>
      <trkpt lat="45.34537" lon="6.70268">
        <ele>1798.3</ele>
        <time>2020-02-02T11:21:16Z</time>
      </trkpt>
      <trkpt lat="45.34553" lon="6.70249">
        <ele>1788.8</ele>
        <time>2020-02-02T11:21:36Z</time>
      </trkpt>
      <trkpt lat="45.34568" lon="6.70251">
        <ele>1786.5</ele>
        <time>2020-02-02T11:21:40Z</time>
      </trkpt>
      <trkpt lat="45.34583" lon="6.70257">
        <ele>1785.4</ele>
        <time>2020-02-02T11:21:46Z</time>
      </trkpt>
      <trkpt lat="45.34616" lon="6.70291">
        <ele>1790.7</ele>
        <time>2020-02-02T11:22:24Z</time>
      </trkpt>
      <trkpt lat="45.34645" lon="6.70312">
        <ele>1792.5</ele>
        <time>2020-02-02T11:22:59Z</time>
      </trkpt>
      <trkpt lat="45.34656" lon="6.70322">
        <ele>1794</ele>
        <time>2020-02-02T11:23:04Z</time>
      </trkpt>
      <trkpt lat="45.34671" lon="6.70318">
        <ele>1788.9</ele>
        <time>2020-02-02T11:23:16Z</time>
      </trkpt>
      <trkpt lat="45.34665" lon="6.7029">
        <ele>1781.2</ele>
        <time>2020-02-02T11:23:20Z</time>
      </trkpt>
      <trkpt lat="45.34654" lon="6.70248">
        <ele>1768.7</ele>
        <time>2020-02-02T11:23:28Z</time>
      </trkpt>
      <trkpt lat="45.34645" lon="6.70227">
        <ele>1763.2</ele>
        <time>2020-02-02T11:23:35Z</time>
      </trkpt>
      <trkpt lat="45.34651" lon="6.7022">
        <ele>1759.6</ele>
        <time>2020-02-02T11:24:05Z</time>
      </trkpt>
      <trkpt lat="45.34691" lon="6.70253">
        <ele>1758.7</ele>
        <time>2020-02-02T11:25:15Z</time>
      </trkpt>
      <trkpt lat="45.34708" lon="6.70267">
        <ele>1756.8</ele>
        <time>2020-02-02T11:25:21Z</time>
      </trkpt>
      <trkpt lat="45.34721" lon="6.70275">
        <ele>1754.4</ele>
        <time>2020-02-02T11:25:24Z</time>
      </trkpt>
      <trkpt lat="45.34735" lon="6.70303">
        <ele>1758.2</ele>
        <time>2020-02-02T11:25:53Z</time>
      </trkpt>
      <trkpt lat="45.34742" lon="6.70326">
        <ele>1762.9</ele>
        <time>2020-02-02T11:26:04Z</time>
      </trkpt>
      <trkpt lat="45.34752" lon="6.70341">
        <ele>1763.3</ele>
        <time>2020-02-02T11:26:13Z</time>
      </trkpt>
      <trkpt lat="45.34772" lon="6.70356">
        <ele>1758</ele>
        <time>2020-02-02T11:26:23Z</time>
      </trkpt>
      <trkpt lat="45.34787" lon="6.70365">
        <ele>1753.2</ele>
        <time>2020-02-02T11:26:36Z</time>
      </trkpt>
      <trkpt lat="45.3482" lon="6.7039">
        <ele>1743.7</ele>
        <time>2020-02-02T11:32:13Z</time>
      </trkpt>
      <trkpt lat="45.34856" lon="6.70397">
        <ele>1732.2</ele>
        <time>2020-02-02T11:32:42Z</time>
      </trkpt>
      <trkpt lat="45.34923" lon="6.70408">
        <ele>1714.4</ele>
        <time>2020-02-02T11:33:25Z</time>
      </trkpt>
      <trkpt lat="45.34953" lon="6.70408">
        <ele>1712.5</ele>
        <time>2020-02-02T11:33:35Z</time>
      </trkpt>
      <trkpt lat="45.34982" lon="6.70399">
        <ele>1710.3</ele>
        <time>2020-02-02T11:33:43Z</time>
      </trkpt>
      <trkpt lat="45.35099" lon="6.70381">
        <ele>1701.8</ele>
        <time>2020-02-02T11:34:18Z</time>
      </trkpt>
      <trkpt lat="45.35132" lon="6.70371">
        <ele>1697.5</ele>
        <time>2020-02-02T11:34:27Z</time>
      </trkpt>
      <trkpt lat="45.3516" lon="6.70366">
        <ele>1694.1</ele>
        <time>2020-02-02T11:34:35Z</time>
      </trkpt>
      <trkpt lat="45.35191" lon="6.7037">
        <ele>1694.3</ele>
        <time>2020-02-02T11:34:45Z</time>
      </trkpt>
      <trkpt lat="45.35219" lon="6.70386">
        <ele>1698.1</ele>
        <time>2020-02-02T11:34:52Z</time>
      </trkpt>
      <trkpt lat="45.35248" lon="6.70407">
        <ele>1704.4</ele>
        <time>2020-02-02T11:34:59Z</time>
      </trkpt>
      <trkpt lat="45.35282" lon="6.70415">
        <ele>1703.5</ele>
        <time>2020-02-02T11:35:06Z</time>
      </trkpt>
      <trkpt lat="45.35317" lon="6.70415">
        <ele>1700.1</ele>
        <time>2020-02-02T11:35:11Z</time>
      </trkpt>
      <trkpt lat="45.35344" lon="6.70401">
        <ele>1694.1</ele>
        <time>2020-02-02T11:35:15Z</time>
      </trkpt>
      <trkpt lat="45.35441" lon="6.70409">
        <ele>1686.9</ele>
        <time>2020-02-02T11:35:30Z</time>
      </trkpt>
      <trkpt lat="45.35474" lon="6.70412">
        <ele>1682.3</ele>
        <time>2020-02-02T11:35:35Z</time>
      </trkpt>
      <trkpt lat="45.35566" lon="6.70406">
        <ele>1670.4</ele>
        <time>2020-02-02T11:35:50Z</time>
      </trkpt>
      <trkpt lat="45.35597" lon="6.70417">
        <ele>1668.5</ele>
        <time>2020-02-02T11:35:56Z</time>
      </trkpt>
      <trkpt lat="45.35628" lon="6.70438">
        <ele>1671.5</ele>
        <time>2020-02-02T11:36:02Z</time>
      </trkpt>
      <trkpt lat="45.35656" lon="6.7046">
        <ele>1674.9</ele>
        <time>2020-02-02T11:36:07Z</time>
      </trkpt>
      <trkpt lat="45.35686" lon="6.70469">
        <ele>1672.8</ele>
        <time>2020-02-02T11:36:12Z</time>
      </trkpt>
      <trkpt lat="45.35716" lon="6.70486">
        <ele>1671.7</ele>
        <time>2020-02-02T11:36:18Z</time>
      </trkpt>
      <trkpt lat="45.35741" lon="6.70512">
        <ele>1673.9</ele>
        <time>2020-02-02T11:36:24Z</time>
      </trkpt>
      <trkpt lat="45.35761" lon="6.70544">
        <ele>1678.5</ele>
        <time>2020-02-02T11:36:29Z</time>
      </trkpt>
      <trkpt lat="45.35783" lon="6.70576">
        <ele>1681.5</ele>
        <time>2020-02-02T11:36:34Z</time>
      </trkpt>
      <trkpt lat="45.35816" lon="6.70593">
        <ele>1677.7</ele>
        <time>2020-02-02T11:36:43Z</time>
      </trkpt>
      <trkpt lat="45.35878" lon="6.70607">
        <ele>1660.7</ele>
        <time>2020-02-02T11:36:53Z</time>
      </trkpt>
      <trkpt lat="45.35903" lon="6.70623">
        <ele>1657.8</ele>
        <time>2020-02-02T11:36:58Z</time>
      </trkpt>
      <trkpt lat="45.35929" lon="6.70651">
        <ele>1660.3</ele>
        <time>2020-02-02T11:37:05Z</time>
      </trkpt>
      <trkpt lat="45.35955" lon="6.70672">
        <ele>1660.4</ele>
        <time>2020-02-02T11:37:10Z</time>
      </trkpt>
      <trkpt lat="45.35985" lon="6.70681">
        <ele>1654</ele>
        <time>2020-02-02T11:37:15Z</time>
      </trkpt>
      <trkpt lat="45.36016" lon="6.70683">
        <ele>1644.3</ele>
        <time>2020-02-02T11:37:20Z</time>
      </trkpt>
      <trkpt lat="45.36076" lon="6.70705">
        <ele>1631.2</ele>
        <time>2020-02-02T11:37:34Z</time>
      </trkpt>
      <trkpt lat="45.361" lon="6.7073">
        <ele>1631.8</ele>
        <time>2020-02-02T11:37:42Z</time>
      </trkpt>
      <trkpt lat="45.36109" lon="6.70688">
        <ele>1617.5</ele>
        <time>2020-02-02T11:38:01Z</time>
      </trkpt>
      <trkpt lat="45.3609" lon="6.7065">
        <ele>1612.6</ele>
        <time>2020-02-02T11:38:09Z</time>
      </trkpt>
      <trkpt lat="45.36092" lon="6.70608">
        <ele>1605</ele>
        <time>2020-02-02T11:38:17Z</time>
      </trkpt>
      <trkpt lat="45.36125" lon="6.70607">
        <ele>1601.9</ele>
        <time>2020-02-02T11:38:27Z</time>
      </trkpt>
      <trkpt lat="45.36151" lon="6.70607">
        <ele>1599.6</ele>
        <time>2020-02-02T11:38:43Z</time>
      </trkpt>
      <trkpt lat="45.36184" lon="6.70605">
        <ele>1598.6</ele>
        <time>2020-02-02T11:40:56Z</time>
      </trkpt>
      <trkpt lat="45.36212" lon="6.70621">
        <ele>1598.2</ele>
        <time>2020-02-02T11:41:06Z</time>
      </trkpt>
      <trkpt lat="45.36241" lon="6.70635">
        <ele>1596.7</ele>
        <time>2020-02-02T11:41:19Z</time>
      </trkpt>
      <trkpt lat="45.36272" lon="6.70644">
        <ele>1594</ele>
        <time>2020-02-02T11:41:29Z</time>
      </trkpt>
      <trkpt lat="45.36301" lon="6.70652">
        <ele>1590.8</ele>
        <time>2020-02-02T11:41:50Z</time>
      </trkpt>
      <trkpt lat="45.36331" lon="6.70664">
        <ele>1586.6</ele>
        <time>2020-02-02T11:42:17Z</time>
      </trkpt>
      <trkpt lat="45.36454" lon="6.70701">
        <ele>1588</ele>
        <time>2020-02-02T11:42:52Z</time>
      </trkpt>
      <trkpt lat="45.36479" lon="6.7072">
        <ele>1585.4</ele>
        <time>2020-02-02T11:42:58Z</time>
      </trkpt>
      <trkpt lat="45.3662" lon="6.70815">
        <ele>1569</ele>
        <time>2020-02-02T11:43:19Z</time>
      </trkpt>
      <trkpt lat="45.36678" lon="6.70858">
        <ele>1562.1</ele>
        <time>2020-02-02T11:43:28Z</time>
      </trkpt>
      <trkpt lat="45.36793" lon="6.7094">
        <ele>1550.7</ele>
        <time>2020-02-02T11:43:55Z</time>
      </trkpt>
      <trkpt lat="45.36965" lon="6.71025">
        <ele>1546.4</ele>
        <time>2020-02-02T11:44:26Z</time>
      </trkpt>
      <trkpt lat="45.36995" lon="6.71041">
        <ele>1546.2</ele>
        <time>2020-02-02T11:44:31Z</time>
      </trkpt>
      <trkpt lat="45.37049" lon="6.71074">
        <ele>1542.3</ele>
        <time>2020-02-02T11:44:41Z</time>
      </trkpt>
      <trkpt lat="45.37182" lon="6.71273">
        <ele>1515.9</ele>
        <time>2020-02-02T11:45:11Z</time>
      </trkpt>
      <trkpt lat="45.3731" lon="6.71341">
        <ele>1514.9</ele>
        <time>2020-02-02T11:45:46Z</time>
      </trkpt>
      <trkpt lat="45.3734" lon="6.71355">
        <ele>1515.3</ele>
        <time>2020-02-02T11:45:50Z</time>
      </trkpt>
      <trkpt lat="45.37364" lon="6.7137">
        <ele>1515.3</ele>
        <time>2020-02-02T11:45:55Z</time>
      </trkpt>
      <trkpt lat="45.3739" lon="6.71389">
        <ele>1512.7</ele>
        <time>2020-02-02T11:46:05Z</time>
      </trkpt>
      <trkpt lat="45.37407" lon="6.71428">
        <ele>1504.6</ele>
        <time>2020-02-02T11:46:11Z</time>
      </trkpt>
      <trkpt lat="45.37429" lon="6.71467">
        <ele>1503.9</ele>
        <time>2020-02-02T11:46:27Z</time>
      </trkpt>
      <trkpt lat="45.37461" lon="6.71472">
        <ele>1505.2</ele>
        <time>2020-02-02T11:48:13Z</time>
      </trkpt>
      <trkpt lat="45.37487" lon="6.71497">
        <ele>1502.5</ele>
        <time>2020-02-02T11:48:23Z</time>
      </trkpt>
      <trkpt lat="45.37517" lon="6.71511">
        <ele>1502.5</ele>
        <time>2020-02-02T11:48:30Z</time>
      </trkpt>
      <trkpt lat="45.37549" lon="6.71515">
        <ele>1503.5</ele>
        <time>2020-02-02T11:48:36Z</time>
      </trkpt>
      <trkpt lat="45.37582" lon="6.71509">
        <ele>1505.6</ele>
        <time>2020-02-02T11:48:41Z</time>
      </trkpt>
      <trkpt lat="45.37609" lon="6.71498">
        <ele>1507.6</ele>
        <time>2020-02-02T11:48:47Z</time>
      </trkpt>
      <trkpt lat="45.37575" lon="6.715">
        <ele>1506.5</ele>
        <time>2020-02-02T11:49:09Z</time>
      </trkpt>
      <trkpt lat="45.37529" lon="6.71529">
        <ele>1501.8</ele>
        <time>2020-02-02T11:49:17Z</time>
      </trkpt>
      <trkpt lat="45.37453" lon="6.71546">
        <ele>1502.8</ele>
        <time>2020-02-02T11:49:23Z</time>
      </trkpt>
      <trkpt lat="45.37447" lon="6.71564">
        <ele>1503.4</ele>
        <time>2020-02-02T11:49:25Z</time>
      </trkpt>
      <trkpt lat="45.37457" lon="6.71635">
        <ele>1487.8</ele>
        <time>2020-02-02T11:49:27Z</time>
      </trkpt>
      <trkpt lat="45.37449" lon="6.71664">
        <ele>1478.8</ele>
        <time>2020-02-02T11:49:29Z</time>
      </trkpt>
      <trkpt lat="45.37429" lon="6.71696">
        <ele>1470.1</ele>
        <time>2020-02-02T11:49:33Z</time>
      </trkpt>
      <trkpt lat="45.37435" lon="6.71753">
        <ele>1457.8</ele>
        <time>2020-02-02T11:49:37Z</time>
      </trkpt>
      <trkpt lat="45.37477" lon="6.71792">
        <ele>1455.6</ele>
        <time>2020-02-02T11:49:54Z</time>
      </trkpt>
      <trkpt lat="45.37551" lon="6.71873">
        <ele>1447</ele>
        <time>2020-02-02T11:50:09Z</time>
      </trkpt>
      <trkpt lat="45.37617" lon="6.71864">
        <ele>1443.7</ele>
        <time>2020-02-02T11:50:18Z</time>
      </trkpt>
      <trkpt lat="45.37637" lon="6.71866">
        <ele>1442.5</ele>
        <time>2020-02-02T11:50:23Z</time>
      </trkpt>
      <trkpt lat="45.37666" lon="6.71864">
        <ele>1440.9</ele>
        <time>2020-02-02T11:50:38Z</time>
      </trkpt>
      <trkpt lat="45.37694" lon="6.71877">
        <ele>1438.6</ele>
        <time>2020-02-02T11:50:49Z</time>
      </trkpt>
      <trkpt lat="45.37703" lon="6.71892">
        <ele>1437.8</ele>
        <time>2020-02-02T11:50:57Z</time>
      </trkpt>
      <trkpt lat="45.37719" lon="6.71898">
        <ele>1436.7</ele>
        <time>2020-02-02T11:51:03Z</time>
      </trkpt>
      <trkpt lat="45.37736" lon="6.71899">
        <ele>1435.8</ele>
        <time>2020-02-02T11:51:08Z</time>
      </trkpt>
      <trkpt lat="45.37751" lon="6.71895">
        <ele>1435</ele>
        <time>2020-02-02T11:51:14Z</time>
      </trkpt>
      <trkpt lat="45.37766" lon="6.71898">
        <ele>1434.4</ele>
        <time>2020-02-02T11:51:21Z</time>
      </trkpt>
      <trkpt lat="45.37794" lon="6.71896">
        <ele>1433.3</ele>
        <time>2020-02-02T11:51:37Z</time>
      </trkpt>
      <trkpt lat="45.37806" lon="6.71894">
        <ele>1432.9</ele>
        <time>2020-02-02T11:51:47Z</time>
      </trkpt>
      <trkpt lat="45.37813" lon="6.71891">
        <ele>1432.7</ele>
        <time>2020-02-02T11:51:53Z</time>
      </trkpt>
      <trkpt lat="45.37824" lon="6.71892">
        <ele>1432.2</ele>
        <time>2020-02-02T11:52:00Z</time>
      </trkpt>
      <trkpt lat="45.3784" lon="6.71889">
        <ele>1431.8</ele>
        <time>2020-02-02T11:52:16Z</time>
      </trkpt>
      <trkpt lat="45.37853" lon="6.71885">
        <ele>1431.4</ele>
        <time>2020-02-02T11:52:30Z</time>
      </trkpt>
      <trkpt lat="45.37857" lon="6.71883">
        <ele>1431.4</ele>
        <time>2020-02-02T11:52:35Z</time>
      </trkpt>
      <trkpt lat="45.37872" lon="6.71879">
        <ele>1431</ele>
        <time>2020-02-02T11:52:52Z</time>
      </trkpt>
      <trkpt lat="45.37879" lon="6.71869">
        <ele>1431.1</ele>
        <time>2020-02-02T11:52:56Z</time>
      </trkpt>
      <trkpt lat="45.37888" lon="6.7186">
        <ele>1431.1</ele>
        <time>2020-02-02T11:52:59Z</time>
      </trkpt>
      <trkpt lat="45.37914" lon="6.71851">
        <ele>1430.5</ele>
        <time>2020-02-02T11:53:05Z</time>
      </trkpt>
      <trkpt lat="45.37923" lon="6.7185">
        <ele>1430</ele>
        <time>2020-02-02T11:53:07Z</time>
      </trkpt>
      <trkpt lat="45.37933" lon="6.71849">
        <ele>1429.4</ele>
        <time>2020-02-02T11:53:09Z</time>
      </trkpt>
      <trkpt lat="45.37952" lon="6.71844">
        <ele>1428.3</ele>
        <time>2020-02-02T11:53:13Z</time>
      </trkpt>
      <trkpt lat="45.37961" lon="6.7184">
        <ele>1427.7</ele>
        <time>2020-02-02T11:53:15Z</time>
      </trkpt>
      <trkpt lat="45.37971" lon="6.71836">
        <ele>1427.1</ele>
        <time>2020-02-02T11:53:17Z</time>
      </trkpt>
      <trkpt lat="45.3798" lon="6.71834">
        <ele>1426.4</ele>
        <time>2020-02-02T11:53:19Z</time>
      </trkpt>
      <trkpt lat="45.37989" lon="6.71833">
        <ele>1425.8</ele>
        <time>2020-02-02T11:53:22Z</time>
      </trkpt>
      <trkpt lat="45.38001" lon="6.7184">
        <ele>1425</ele>
        <time>2020-02-02T11:53:28Z</time>
      </trkpt>
      <trkpt lat="45.38013" lon="6.7184">
        <ele>1424.6</ele>
        <time>2020-02-02T11:53:35Z</time>
      </trkpt>
      <trkpt lat="45.38028" lon="6.71838">
        <ele>1424</ele>
        <time>2020-02-02T11:53:41Z</time>
      </trkpt>
      <trkpt lat="45.38039" lon="6.71843">
        <ele>1423.7</ele>
        <time>2020-02-02T11:53:46Z</time>
      </trkpt>
      <trkpt lat="45.38046" lon="6.71847">
        <ele>1423.4</ele>
        <time>2020-02-02T11:53:52Z</time>
      </trkpt>
      <trkpt lat="45.38054" lon="6.71844">
        <ele>1423.1</ele>
        <time>2020-02-02T11:53:59Z</time>
      </trkpt>
      <trkpt lat="45.38063" lon="6.71842">
        <ele>1422.8</ele>
        <time>2020-02-02T11:54:05Z</time>
      </trkpt>
      <trkpt lat="45.38074" lon="6.7184">
        <ele>1422.3</ele>
        <time>2020-02-02T11:54:12Z</time>
      </trkpt>
      <trkpt lat="45.38089" lon="6.71851">
        <ele>1421.9</ele>
        <time>2020-02-02T11:56:50Z</time>
      </trkpt>
    </trkseg>
  </trk>
</gpx>